createdAt,value
2022-08-07T00:02:36.032Z,102757.47
2022-08-07T00:05:01.067Z,102749.59
2022-08-07T00:07:36.894Z,102747.34
2022-08-07T00:10:26.236Z,102745.13
2022-08-07T00:13:00.361Z,102743.16
2022-08-07T00:15:37.844Z,102751.28
2022-08-07T00:18:19.676Z,102747.38
2022-08-07T00:20:52.317Z,102740.63
2022-08-07T00:23:21.777Z,102740.34
2022-08-07T00:25:58.256Z,102743.16
2022-08-07T00:28:33.807Z,102743.47
2022-08-07T00:31:06.156Z,102745.97
2022-08-07T00:33:35.554Z,102740.34
2022-08-07T00:36:04.424Z,102742.59
2022-08-07T00:38:36.602Z,102744.84
2022-08-07T00:41:09.789Z,102728.53
2022-08-07T00:43:59.186Z,102735.88
2022-08-07T00:46:30.082Z,102729.41
2022-08-07T00:49:01.954Z,102726.88
2022-08-07T00:51:57.492Z,102729.66
2022-08-07T00:54:20.060Z,102725.16
2022-08-07T00:56:49.941Z,102726.56
2022-08-07T00:59:17.905Z,102732.72
2022-08-07T01:01:50.713Z,102722.31
2022-08-07T01:04:25.978Z,102730.47
2022-08-07T01:06:58.167Z,102728.47
2022-08-07T01:10:04.492Z,102727.09
2022-08-07T01:12:30.112Z,102725.97
2022-08-07T01:15:01.104Z,102722.00
2022-08-07T01:17:30.818Z,102725.66
2022-08-07T01:20:08.173Z,102726.19
2022-08-07T01:22:46.565Z,102720.31
2022-08-07T01:25:54.025Z,102725.63
2022-08-07T01:28:05.070Z,102721.97
2022-08-07T01:30:33.938Z,102719.69
2022-08-07T01:33:02.257Z,102725.84
2022-08-07T01:35:36.928Z,102722.75
2022-08-07T01:38:25.109Z,102718.84
2022-08-07T01:41:00.314Z,102726.97
2022-08-07T01:43:34.533Z,102723.59
2022-08-07T01:46:08.405Z,102717.66
2022-08-07T01:48:46.587Z,102720.19
2022-08-07T01:52:03.417Z,102721.03
2022-08-07T01:54:32.539Z,102715.13
2022-08-07T01:57:08.190Z,102710.31
2022-08-07T01:59:44.093Z,102712.81
2022-08-07T02:03:11.306Z,102713.38
2022-08-07T02:05:15.850Z,102714.47
2022-08-07T02:08:04.174Z,102716.13
2022-08-07T02:10:42.266Z,102707.16
2022-08-07T02:13:13.487Z,102704.88
2022-08-07T02:15:50.953Z,102709.91
2022-08-07T02:18:23.116Z,102702.88
2022-08-07T02:20:57.323Z,102704.53
2022-08-07T02:23:26.964Z,102706.47
2022-08-07T02:26:32.022Z,102705.38
2022-08-07T02:28:52.393Z,102717.09
2022-08-07T02:31:28.811Z,102720.16
2022-08-07T02:34:04.055Z,102718.47
2022-08-07T02:36:45.305Z,102717.06
2022-08-07T02:39:43.181Z,102721.25
2022-08-07T02:42:10.117Z,102716.16
2022-08-07T02:44:47.938Z,102719.25
2022-08-07T02:47:35.078Z,102717.84
2022-08-07T02:50:14.516Z,102713.06
2022-08-07T02:52:48.821Z,102703.81
2022-08-07T02:55:28.681Z,102705.75
2022-08-07T02:58:13.690Z,102704.59
2022-08-07T03:00:47.380Z,102706.81
2022-08-07T03:03:22.655Z,102693.94
2022-08-07T03:05:55.442Z,102690.56
2022-08-07T03:08:29.130Z,102686.63
2022-08-07T03:10:59.599Z,102689.69
2022-08-07T03:13:39.312Z,102689.13
2022-08-07T03:16:22.859Z,102693.56
2022-08-07T03:18:56.690Z,102695.78
2022-08-07T03:21:25.623Z,102689.06
2022-08-07T03:24:19.406Z,102688.28
2022-08-07T03:26:58.333Z,102689.13
2022-08-07T03:29:32.112Z,102692.75
2022-08-07T03:32:06.249Z,102694.44
2022-08-07T03:34:39.386Z,102689.69
2022-08-07T03:37:11.926Z,102695.56
2022-08-07T03:39:59.350Z,102690.75
2022-08-07T03:42:29.025Z,102694.09
2022-08-07T03:44:58.685Z,102687.06
2022-08-07T03:47:47.974Z,102687.59
2022-08-07T03:50:23.172Z,102681.97
2022-08-07T03:52:53.829Z,102679.44
2022-08-07T03:55:23.144Z,102679.44
2022-08-07T03:58:18.097Z,102676.38
2022-08-07T04:00:46.651Z,102672.47
2022-08-07T04:03:23.048Z,102677.22
2022-08-07T04:05:52.895Z,102674.44
2022-08-07T04:08:27.377Z,102674.69
2022-08-07T04:12:26.488Z,102666.81
2022-08-07T04:14:33.042Z,102672.13
2022-08-07T04:16:37.585Z,102675.19
2022-08-07T04:19:15.203Z,102671.53
2022-08-07T04:21:59.252Z,102680.19
2022-08-07T04:24:34.182Z,102681.56
2022-08-07T04:27:20.499Z,102688.88
2022-08-07T04:30:01.548Z,102684.94
2022-08-07T04:32:44.977Z,102668.72
2022-08-07T04:35:16.923Z,102670.16
2022-08-07T04:38:02.994Z,102675.75
2022-08-07T04:40:34.434Z,102681.34
2022-08-07T04:43:03.322Z,102680.25
2022-08-07T04:45:52.155Z,102679.13
2022-08-07T04:48:35.113Z,102677.19
2022-08-07T04:51:10.163Z,102680.03
2022-08-07T04:54:05.501Z,102682.84
2022-08-07T04:58:11.571Z,102681.72
2022-08-07T05:00:11.398Z,102682.56
2022-08-07T05:02:29.141Z,102689.59
2022-08-07T05:05:11.575Z,102686.00
2022-08-07T05:07:59.334Z,102694.13
2022-08-07T05:10:34.327Z,102683.81
2022-08-07T05:14:44.806Z,102687.75
2022-08-07T05:15:59.151Z,102683.56
2022-08-07T05:18:30.376Z,102681.06
2022-08-07T05:21:05.244Z,102687.56
2022-08-07T05:23:40.779Z,102690.09
2022-08-07T05:26:18.810Z,102686.22
2022-08-07T05:28:56.265Z,102694.09
2022-08-07T05:31:35.029Z,102697.28
2022-08-07T05:34:11.217Z,102698.13
2022-08-07T05:36:49.189Z,102707.69
2022-08-07T05:40:16.813Z,102703.50
2022-08-07T05:42:33.667Z,102700.44
2022-08-07T05:45:14.632Z,102706.38
2022-08-07T05:48:01.219Z,102708.66
2022-08-07T05:50:34.905Z,102707.84
2022-08-07T05:54:14.151Z,102710.97
2022-08-07T05:56:02.103Z,102713.22
2022-08-07T05:58:36.023Z,102720.28
2022-08-07T06:01:10.701Z,102718.91
2022-08-07T06:03:56.275Z,102722.00
2022-08-07T06:06:29.741Z,102722.59
2022-08-07T06:09:05.101Z,102719.22
2022-08-07T06:11:36.975Z,102718.66
2022-08-07T06:14:12.854Z,102722.63
2022-08-07T06:16:55.861Z,102719.28
2022-08-07T06:19:51.797Z,102724.06
2022-08-07T06:22:23.929Z,102713.38
2022-08-07T06:25:05.522Z,102716.44
2022-08-07T06:27:43.911Z,102714.78
2022-08-07T06:30:31.820Z,102724.28
2022-08-07T06:33:15.613Z,102733.25
2022-08-07T06:35:48.202Z,102726.44
2022-08-07T06:38:32.752Z,102728.53
2022-08-07T06:41:09.619Z,102724.03
2022-08-07T06:43:46.126Z,102710.97
2022-08-07T06:46:20.412Z,102707.31
2022-08-07T06:49:00.252Z,102714.84
2022-08-07T06:51:35.746Z,102718.16
2022-08-07T06:55:31.625Z,102714.34
2022-08-07T06:57:10.396Z,102710.34
2022-08-07T07:00:13.311Z,102715.50
2022-08-07T07:02:53.679Z,102707.94
2022-08-07T07:06:05.138Z,102709.28
2022-08-07T07:08:18.591Z,102713.59
2022-08-07T07:10:54.898Z,102710.56
2022-08-07T07:13:55.865Z,102710.34
2022-08-07T07:16:27.561Z,102716.19
2022-08-07T07:19:11.548Z,102715.84
2022-08-07T07:22:04.949Z,102712.06
2022-08-07T07:24:43.156Z,102710.88
2022-08-07T07:27:35.791Z,102717.66
2022-08-07T07:30:32.412Z,102713.97
2022-08-07T07:33:07.784Z,102720.16
2022-08-07T07:35:50.639Z,102713.91
2022-08-07T07:38:25.949Z,102711.22
2022-08-07T07:41:01.732Z,102714.19
2022-08-07T07:43:48.074Z,102716.84
2022-08-07T07:46:37.766Z,102717.22
2022-08-07T07:50:29.620Z,102720.50
2022-08-07T07:52:02.261Z,102713.91
2022-08-07T07:54:33.190Z,102712.22
2022-08-07T07:57:04.162Z,102706.19
2022-08-07T07:59:52.266Z,102711.94
2022-08-07T08:02:35.232Z,102708.47
2022-08-07T08:05:05.276Z,102714.78
2022-08-07T08:07:51.617Z,102720.66
2022-08-07T08:10:35.742Z,102719.91
2022-08-07T08:13:10.604Z,102713.56
2022-08-07T08:15:58.734Z,102713.41
2022-08-07T08:18:31.076Z,102715.59
2022-08-07T08:21:02.339Z,102711.78
2022-08-07T08:23:49.865Z,102713.13
2022-08-07T08:26:37.653Z,102699.66
2022-08-07T08:29:06.359Z,102703.81
2022-08-07T08:32:17.238Z,102699.28
2022-08-07T08:34:38.883Z,102688.63
2022-08-07T08:37:09.741Z,102696.19
2022-08-07T08:39:58.324Z,102692.53
2022-08-07T08:42:30.287Z,102692.56
2022-08-07T08:45:04.772Z,102696.72
2022-08-07T08:47:52.003Z,102690.91
2022-08-07T08:50:34.899Z,102695.88
2022-08-07T08:53:16.581Z,102697.09
2022-08-07T08:55:54.762Z,102696.69
2022-08-07T08:58:36.152Z,102690.84
2022-08-07T09:01:15.375Z,102690.44
2022-08-07T09:03:55.477Z,102692.50
2022-08-07T09:06:42.790Z,102690.91
2022-08-07T09:09:36.559Z,102690.09
2022-08-07T09:12:20.016Z,102695.03
2022-08-07T09:16:21.901Z,102685.06
2022-08-07T09:18:16.847Z,102688.75
2022-08-07T09:20:58.754Z,102688.31
2022-08-07T09:24:31.343Z,102690.44
2022-08-07T09:26:34.552Z,102685.09
2022-08-07T09:30:05.238Z,102691.72
2022-08-07T09:32:17.305Z,102688.00
2022-08-07T09:35:04.703Z,102688.00
2022-08-07T09:37:55.890Z,102677.97
2022-08-07T09:40:36.284Z,102677.06
2022-08-07T09:43:40.159Z,102666.31
2022-08-07T09:47:51.360Z,102668.56
2022-08-07T09:50:01.670Z,102669.84
2022-08-07T09:52:34.350Z,102660.72
2022-08-07T09:55:17.148Z,102663.19
2022-08-07T09:58:42.432Z,102668.56
2022-08-07T10:01:52.374Z,102656.09
2022-08-07T10:04:53.017Z,102651.88
2022-08-07T10:07:52.287Z,102649.19
2022-08-07T10:11:59.885Z,102655.22
2022-08-07T10:14:01.889Z,102652.84
2022-08-07T10:16:59.507Z,102651.59
2022-08-07T10:19:58.374Z,102651.22
2022-08-07T10:22:39.434Z,102645.38
2022-08-07T10:25:22.769Z,102649.78
2022-08-07T10:28:12.929Z,102649.38
2022-08-07T10:30:56.245Z,102642.03
2022-08-07T10:34:05.572Z,102637.94
2022-08-07T10:36:46.198Z,102636.72
2022-08-07T10:39:42.149Z,102638.38
2022-08-07T10:42:31.283Z,102637.94
2022-08-07T10:45:44.943Z,102628.41
2022-08-07T10:48:25.987Z,102632.16
2022-08-07T10:51:16.425Z,102632.19
2022-08-07T10:54:07.111Z,102632.59
2022-08-07T10:56:47.408Z,102637.59
2022-08-07T10:59:30.484Z,102631.34
2022-08-07T11:02:11.816Z,102620.06
2022-08-07T11:05:08.581Z,102618.03
2022-08-07T11:07:58.880Z,102618.00
2022-08-07T11:10:34.965Z,102613.97
2022-08-07T11:14:41.739Z,102613.97
2022-08-07T11:16:07.143Z,102612.75
2022-08-07T11:18:44.013Z,102596.22
2022-08-07T11:21:25.447Z,102595.75
2022-08-07T11:24:10.490Z,102592.41
2022-08-07T11:26:50.002Z,102590.31
2022-08-07T11:29:42.683Z,102589.41
2022-08-07T11:32:25.414Z,102587.84
2022-08-07T11:34:59.402Z,102588.25
2022-08-07T11:38:09.879Z,102586.16
2022-08-07T11:40:49.938Z,102593.91
2022-08-07T11:43:41.287Z,102592.06
2022-08-07T11:46:39.495Z,102601.00
2022-08-07T11:49:51.466Z,102593.72
2022-08-07T11:52:28.948Z,102589.59
2022-08-07T11:55:18.915Z,102581.19
2022-08-07T11:58:13.222Z,102591.13
2022-08-07T12:01:02.144Z,102579.16
2022-08-07T12:03:54.308Z,102575.81
2022-08-07T12:06:51.497Z,102580.78
2022-08-07T12:09:29.533Z,102585.03
2022-08-07T12:12:10.352Z,102578.94
2022-08-07T12:15:01.193Z,102585.16
2022-08-07T12:17:38.361Z,102581.44
2022-08-07T12:20:20.919Z,102589.78
2022-08-07T12:23:15.176Z,102591.88
2022-08-07T12:26:03.310Z,102584.91
2022-08-07T12:28:53.984Z,102582.84
2022-08-07T12:31:53.138Z,102583.19
2022-08-07T12:34:20.905Z,102592.94
2022-08-07T12:36:52.227Z,102576.69
2022-08-07T12:39:42.584Z,102577.94
2022-08-07T12:42:13.326Z,102579.25
2022-08-07T12:44:46.793Z,102578.69
2022-08-07T12:47:26.762Z,102581.47
2022-08-07T12:50:39.427Z,102573.03
2022-08-07T12:53:00.966Z,102580.94
2022-08-07T12:55:41.296Z,102579.88
2022-08-07T12:58:35.173Z,102582.16
2022-08-07T13:01:19.774Z,102580.72
2022-08-07T13:04:02.554Z,102573.72
2022-08-07T13:06:54.517Z,102580.69
2022-08-07T13:10:37.508Z,102564.44
2022-08-07T13:12:47.480Z,102570.78
2022-08-07T13:15:29.679Z,102563.88
2022-08-07T13:18:26.030Z,102566.59
2022-08-07T13:21:02.617Z,102561.72
2022-08-07T13:24:04.046Z,102566.28
2022-08-07T13:26:35.066Z,102563.16
2022-08-07T13:29:11.817Z,102560.16
2022-08-07T13:31:57.258Z,102552.81
2022-08-07T13:34:38.552Z,102552.81
2022-08-07T13:37:19.856Z,102552.16
2022-08-07T13:40:36.216Z,102544.50
2022-08-07T13:42:47.154Z,102555.81
2022-08-07T13:46:06.835Z,102550.56
2022-08-07T13:48:10.523Z,102547.47
2022-08-07T13:51:01.340Z,102545.53
2022-08-07T13:53:59.765Z,102543.94
2022-08-07T13:56:36.000Z,102557.03
2022-08-07T13:59:12.746Z,102550.44
2022-08-07T14:01:59.061Z,102552.25
2022-08-07T14:04:36.212Z,102550.94
2022-08-07T14:07:10.318Z,102548.63
2022-08-07T14:10:02.091Z,102552.25
2022-08-07T14:12:41.818Z,102553.25
2022-08-07T14:15:32.005Z,102541.66
2022-08-07T14:18:23.969Z,102539.78
2022-08-07T14:21:07.917Z,102548.84
2022-08-07T14:23:59.971Z,102544.94
2022-08-07T14:26:39.111Z,102543.09
2022-08-07T14:30:04.985Z,102544.44
2022-08-07T14:32:04.750Z,102546.81
2022-08-07T14:34:34.840Z,102545.69
2022-08-07T14:37:36.359Z,102531.59
2022-08-07T14:40:26.776Z,102530.75
2022-08-07T14:43:01.208Z,102530.69
2022-08-07T14:45:49.490Z,102535.38
2022-08-07T14:48:21.883Z,102533.34
2022-08-07T14:51:00.066Z,102535.75
2022-08-07T14:54:03.606Z,102536.44
2022-08-07T14:56:30.156Z,102534.09
2022-08-07T14:59:03.029Z,102534.59
2022-08-07T15:01:51.107Z,102527.66
2022-08-07T15:04:25.158Z,102524.34
2022-08-07T15:06:53.993Z,102526.78
2022-08-07T15:09:59.068Z,102533.00
2022-08-07T15:12:25.885Z,102529.38
2022-08-07T15:15:07.758Z,102520.41
2022-08-07T15:17:55.321Z,102517.72
2022-08-07T15:20:38.574Z,102521.25
2022-08-07T15:30:10.334Z,102514.81
2022-08-07T15:32:02.886Z,102515.16
2022-08-07T15:34:50.440Z,102516.09
2022-08-07T15:37:28.365Z,102509.53
2022-08-07T15:39:59.622Z,102515.53
2022-08-07T15:42:51.637Z,102506.41
2022-08-07T15:45:58.175Z,102509.50
2022-08-07T15:48:25.910Z,102504.88
2022-08-07T15:53:54.577Z,102494.25
2022-08-07T15:56:25.808Z,102496.47
2022-08-07T15:59:00.786Z,102498.66
2022-08-07T16:01:39.318Z,102497.53
2022-08-07T16:04:18.298Z,102497.16
2022-08-07T16:06:52.612Z,102493.69
2022-08-07T16:09:41.149Z,102486.19
2022-08-07T16:12:28.729Z,102486.84
2022-08-07T16:15:55.029Z,102482.69
2022-08-07T16:18:43.457Z,102485.00
2022-08-07T16:22:01.162Z,102483.06
2022-08-07T16:24:03.628Z,102489.69
2022-08-07T16:26:59.339Z,102481.47
2022-08-07T16:30:10.030Z,102481.34
2022-08-07T16:32:36.304Z,102485.44
2022-08-07T16:35:50.292Z,102485.78
2022-08-07T16:38:15.856Z,102483.84
2022-08-07T16:41:12.645Z,102483.72
2022-08-07T16:44:46.379Z,102476.53
2022-08-07T16:47:38.310Z,102471.81
2022-08-07T16:50:39.268Z,102463.59
2022-08-07T16:54:01.941Z,102472.59
2022-08-07T16:56:37.574Z,102473.78
2022-08-07T16:59:19.893Z,102471.63
2022-08-07T17:02:02.947Z,102470.13
2022-08-07T17:04:50.901Z,102471.44
2022-08-07T17:07:55.579Z,102468.44
2022-08-07T17:10:38.367Z,102478.91
2022-08-07T17:14:18.656Z,102481.19
2022-08-07T17:16:44.200Z,102470.13
2022-08-07T17:20:03.539Z,102469.28
2022-08-07T17:22:36.435Z,102470.91
2022-08-07T17:25:14.132Z,102472.75
2022-08-07T17:28:00.399Z,102474.25
2022-08-07T17:30:36.197Z,102463.50
2022-08-07T17:34:08.301Z,102473.88
2022-08-07T17:36:21.340Z,102467.78
2022-08-07T17:39:10.337Z,102465.13
2022-08-07T17:42:04.892Z,102463.50
2022-08-07T17:44:45.394Z,102458.44
2022-08-07T17:47:38.506Z,102456.72
2022-08-07T17:50:16.710Z,102450.31
2022-08-07T17:52:53.957Z,102459.06
2022-08-07T17:55:55.843Z,102456.94
2022-08-07T17:58:31.183Z,102463.72
2022-08-07T18:01:21.565Z,102463.06
2022-08-07T18:04:16.469Z,102455.41
2022-08-07T18:06:57.904Z,102456.13
2022-08-07T18:10:04.739Z,102463.72
2022-08-07T18:12:49.589Z,102461.22
2022-08-07T18:15:23.891Z,102455.53
2022-08-07T18:18:47.070Z,102466.56
2022-08-07T18:21:38.336Z,102464.06
2022-08-07T18:24:07.070Z,102456.56
2022-08-07T18:26:51.715Z,102459.09
2022-08-07T18:30:08.389Z,102459.63
2022-08-07T18:32:29.272Z,102456.59
2022-08-07T18:35:17.529Z,102462.75
2022-08-07T18:38:59.650Z,102463.03
2022-08-07T18:41:17.065Z,102474.22
2022-08-07T18:43:57.847Z,102475.34
2022-08-07T18:46:43.235Z,102467.81
2022-08-07T18:50:30.572Z,102476.16
2022-08-07T18:52:54.251Z,102479.25
2022-08-07T18:55:41.076Z,102493.25
2022-08-07T18:58:34.217Z,102486.03
2022-08-07T19:02:17.256Z,102492.63
2022-08-07T19:04:09.963Z,102494.06
2022-08-07T19:06:49.685Z,102500.84
2022-08-07T19:09:56.989Z,102493.44
2022-08-07T19:12:20.094Z,102497.06
2022-08-07T19:15:00.652Z,102501.47
2022-08-07T19:17:54.471Z,102496.94
2022-08-07T19:20:33.762Z,102497.47
2022-08-07T19:23:18.788Z,102509.28
2022-08-07T19:26:23.974Z,102515.66
2022-08-07T19:30:55.521Z,102517.59
2022-08-07T19:31:57.741Z,102515.81
2022-08-07T19:34:34.319Z,102523.06
2022-08-07T19:37:17.147Z,102523.91
2022-08-07T19:39:57.277Z,102526.66
2022-08-07T19:42:40.206Z,102532.13
2022-08-07T19:46:05.959Z,102526.56
2022-08-07T19:48:03.123Z,102533.78
2022-08-07T19:50:44.552Z,102531.59
2022-08-07T19:54:35.262Z,102535.69
2022-08-07T19:58:01.868Z,102537.75
2022-08-07T19:59:11.681Z,102538.78
2022-08-07T20:01:56.266Z,102543.06
2022-08-07T20:04:32.105Z,102536.66
2022-08-07T20:07:10.041Z,102534.78
2022-08-07T20:10:35.995Z,102539.91
2022-08-07T20:12:35.911Z,102539.78
2022-08-07T20:15:09.746Z,102538.41
2022-08-07T20:17:56.328Z,102535.69
2022-08-07T20:20:35.974Z,102543.09
2022-08-07T20:23:22.955Z,102539.25
2022-08-07T20:26:04.866Z,102530.31
2022-08-07T20:28:39.289Z,102544.59
2022-08-07T20:31:21.676Z,102530.59
2022-08-07T20:33:57.329Z,102544.72
2022-08-07T20:36:28.299Z,102539.66
2022-08-07T20:39:00.353Z,102544.25
2022-08-07T20:41:42.576Z,102539.53
2022-08-07T20:44:13.027Z,102544.75
2022-08-07T20:46:44.986Z,102552.13
2022-08-07T20:49:58.916Z,102543.78
2022-08-07T20:52:16.374Z,102544.78
2022-08-07T20:54:53.337Z,102534.34
2022-08-07T20:57:30.893Z,102536.63
2022-08-07T21:00:09.442Z,102544.63
2022-08-07T21:03:01.908Z,102541.88
2022-08-07T21:05:52.785Z,102540.59
2022-08-07T21:08:36.786Z,102535.06
2022-08-07T21:11:12.398Z,102539.72
2022-08-07T21:14:29.431Z,102544.22
2022-08-07T21:16:56.239Z,102550.47
2022-08-07T21:19:51.218Z,102542.06
2022-08-07T21:22:28.360Z,102545.47
2022-08-07T21:25:12.045Z,102550.59
2022-08-07T21:28:01.849Z,102551.22
2022-08-07T21:30:41.829Z,102550.13
2022-08-07T21:33:16.190Z,102548.44
2022-08-07T21:36:06.793Z,102536.63
2022-08-07T21:38:50.252Z,102539.22
2022-08-07T21:41:25.646Z,102544.91
2022-08-07T21:43:57.976Z,102543.84
2022-08-07T21:46:40.340Z,102559.38
2022-08-07T21:49:16.147Z,102553.78
2022-08-07T21:52:03.089Z,102548.19
2022-08-07T21:54:46.211Z,102557.50
2022-08-07T21:57:40.101Z,102559.56
2022-08-07T22:00:23.034Z,102566.09
2022-08-07T22:03:03.346Z,102560.22
2022-08-07T22:05:44.536Z,102558.81
2022-08-07T22:08:18.878Z,102559.41
2022-08-07T22:10:50.846Z,102562.53
2022-08-07T22:13:23.991Z,102566.25
2022-08-07T22:16:43.410Z,102564.31
2022-08-07T22:19:08.097Z,102567.72
2022-08-07T22:22:05.198Z,102563.81
2022-08-07T22:24:35.328Z,102559.94
2022-08-07T22:27:07.818Z,102566.44
2022-08-07T22:29:48.040Z,102566.75
2022-08-07T22:32:31.047Z,102572.38
2022-08-07T22:35:04.808Z,102571.81
2022-08-07T22:38:04.460Z,102566.19
2022-08-07T22:40:43.411Z,102564.53
2022-08-07T22:43:14.524Z,102568.78
2022-08-07T22:46:40.901Z,102576.69
2022-08-07T22:49:06.665Z,102572.25
2022-08-07T22:51:51.891Z,102572.31
2022-08-07T22:54:41.038Z,102570.38
2022-08-07T22:57:40.900Z,102581.09
2022-08-07T23:00:15.959Z,102574.38
2022-08-07T23:02:59.174Z,102580.28
2022-08-07T23:06:08.648Z,102581.44
2022-08-07T23:08:58.556Z,102580.59
2022-08-07T23:11:59.150Z,102577.25
2022-08-07T23:14:38.825Z,102580.34
2022-08-07T23:17:41.662Z,102575.56
2022-08-07T23:20:51.393Z,102570.81
2022-08-07T23:24:06.251Z,102569.13
2022-08-07T23:26:39.646Z,102563.25
2022-08-07T23:30:35.958Z,102561.00
2022-08-07T23:34:23.537Z,102567.47
2022-08-07T23:35:22.775Z,102568.59
2022-08-07T23:38:42.041Z,102571.41
2022-08-07T23:41:20.645Z,102567.75
2022-08-07T23:44:06.692Z,102571.72
2022-08-07T23:46:57.502Z,102572.00
2022-08-07T23:49:53.090Z,102579.88
2022-08-07T23:52:58.788Z,102584.16
2022-08-07T23:55:53.197Z,102577.97
2022-08-07T23:58:21.242Z,102584.16
